Time;durP1;ratioP1;P1;durP2;ratioP2;P2;SDS_P1;SDS_P2;PMS_P1;PMS_P2;Temp;Humidity;BMP_temperature;BMP_pressure;BME280_temperature;BME280_humidity;BME280_pressure;Samples;Min_cycle;Max_cycle;Signal;HPM_P1;HPM_P2
2023/05/26 00:00:57;;;;;;;1.05;0.90;;;20.60;65.70;;;;;;5053186;28;20410;-79
2023/05/26 00:03:27;;;;;;;0.80;0.80;;;20.60;65.50;;;;;;5050104;28;20402;-79
2023/05/26 00:05:54;;;;;;;0.80;0.80;;;20.60;65.40;;;;;;5047513;28;20402;-79
2023/05/26 00:08:19;;;;;;;1.40;1.30;;;20.60;65.40;;;;;;5051304;28;20087;-79
2023/05/26 00:10:45;;;;;;;0.80;0.80;;;20.60;65.30;;;;;;5049957;28;20045;-79
2023/05/26 00:13:10;;;;;;;0.73;0.73;;;20.50;65.20;;;;;;5046787;28;20047;-79
2023/05/26 00:15:37;;;;;;;0.90;0.90;;;20.60;65.30;;;;;;5052079;28;20057;-79
2023/05/26 00:18:02;;;;;;;0.85;0.85;;;20.60;65.30;;;;;;5046627;28;20036;-78
2023/05/26 00:20:29;;;;;;;0.90;0.90;;;20.60;65.30;;;;;;5051182;28;20393;-79
2023/05/26 00:22:54;;;;;;;0.90;0.90;;;20.60;65.30;;;;;;5052683;28;20052;-79
2023/05/26 00:25:21;;;;;;;0.90;0.90;;;20.60;65.30;;;;;;5051690;28;20036;-79
2023/05/26 00:27:46;;;;;;;0.90;0.90;;;20.60;65.30;;;;;;5045700;28;20037;-79
2023/05/26 00:30:12;;;;;;;1.15;0.98;;;20.50;65.30;;;;;;5043546;28;20030;-79
2023/05/26 00:32:38;;;;;;;1.02;1.02;;;20.50;65.30;;;;;;5050159;28;20510;-79
2023/05/26 00:35:03;;;;;;;0.80;0.80;;;20.50;65.10;;;;;;5044365;28;20037;-79
2023/05/26 00:37:29;;;;;;;0.88;0.88;;;20.60;65.20;;;;;;5048799;28;20037;-79
2023/05/26 00:39:55;;;;;;;1.20;1.10;;;20.50;65.20;;;;;;5049593;28;20037;-79
2023/05/26 00:42:21;;;;;;;1.00;1.00;;;20.50;65.20;;;;;;5046924;28;20120;-79
2023/05/26 00:44:46;;;;;;;1.10;1.00;;;20.50;65.30;;;;;;5033307;28;20119;-79
2023/05/26 00:47:12;;;;;;;1.23;1.13;;;20.50;65.40;;;;;;5049282;28;20396;-79
2023/05/26 00:49:38;;;;;;;1.30;1.20;;;20.50;65.50;;;;;;5046456;28;20076;-79
2023/05/26 00:52:04;;;;;;;1.30;1.20;;;20.50;65.50;;;;;;5049195;28;20136;-79
2023/05/26 00:54:30;;;;;;;1.00;1.00;;;20.50;65.60;;;;;;5044237;28;20052;-79
2023/05/26 00:56:56;;;;;;;0.90;0.90;;;20.50;65.60;;;;;;5039859;28;20108;-79
2023/05/26 00:59:21;;;;;;;1.70;1.02;;;20.50;65.60;;;;;;5045262;28;20412;-79
2023/05/26 01:01:49;;;;;;;1.00;1.00;;;20.50;65.50;;;;;;5047253;28;20573;-79
2023/05/26 01:04:15;;;;;;;1.67;0.95;;;20.50;65.30;;;;;;5033237;28;20049;-79
2023/05/26 01:06:41;;;;;;;0.90;0.85;;;20.50;66.00;;;;;;5048115;28;20045;-79
2023/05/26 01:09:07;;;;;;;0.98;0.93;;;20.50;65.20;;;;;;5055988;28;20106;-79
2023/05/26 01:11:40;;;;;;;1.00;1.00;;;20.50;66.00;;;;;;5031747;28;20450;-79
2023/05/26 01:14:25;;;;;;;0.70;0.70;;;20.50;65.20;;;;;;5053545;28;20049;-79
2023/05/26 01:17:23;;;;;;;0.93;0.88;;;20.50;65.30;;;;;;5050998;28;20060;-79
2023/05/26 01:20:08;;;;;;;0.80;0.80;;;20.40;65.30;;;;;;5020794;28;20045;-79
2023/05/26 01:22:48;;;;;;;0.80;0.80;;;20.50;65.30;;;;;;5058451;28;20407;-79
2023/05/26 01:25:48;;;;;;;1.00;1.00;;;20.50;65.30;;;;;;5055915;28;20501;-79
2023/05/26 01:28:20;;;;;;;0.80;0.80;;;20.40;65.20;;;;;;5053669;28;20041;-79
2023/05/26 01:30:47;;;;;;;0.80;0.80;;;20.40;65.20;;;;;;5051756;28;20044;-79
2023/05/26 01:33:12;;;;;;;0.90;0.90;;;20.40;65.20;;;;;;5020685;28;20233;-79
2023/05/26 01:35:38;;;;;;;1.15;0.98;;;20.40;65.20;;;;;;5049515;28;20049;-79
2023/05/26 01:38:04;;;;;;;0.77;0.77;;;20.40;65.20;;;;;;5052394;28;20033;-79
2023/05/26 01:40:29;;;;;;;0.80;0.80;;;20.40;65.20;;;;;;5024693;28;20120;-79
2023/05/26 01:42:59;;;;;;;0.90;0.90;;;20.40;65.20;;;;;;5047209;28;20037;-79
2023/05/26 01:45:26;;;;;;;0.90;0.90;;;20.40;65.30;;;;;;5040614;28;20064;-79
2023/05/26 01:47:57;;;;;;;1.17;0.85;;;20.40;65.30;;;;;;5038152;28;20120;-79
2023/05/26 01:50:26;;;;;;;1.08;0.98;;;20.40;65.30;;;;;;5036446;28;20041;-79
2023/05/26 01:52:52;;;;;;;0.70;0.70;;;20.40;65.30;;;;;;5053920;28;20049;-79
2023/05/26 01:55:18;;;;;;;1.00;1.00;;;20.40;65.30;;;;;;5053505;28;20056;-79
2023/05/26 01:57:43;;;;;;;1.00;1.00;;;20.40;65.30;;;;;;5039593;28;20067;-79
2023/05/26 02:00:09;;;;;;;1.23;0.90;;;20.40;65.30;;;;;;5038350;28;20044;-79
2023/05/26 02:02:35;;;;;;;1.33;1.25;;;20.40;65.20;;;;;;5042001;28;20060;-79
2023/05/26 02:05:00;;;;;;;1.25;1.00;;;20.40;65.30;;;;;;5037808;28;20037;-79
2023/05/26 02:07:26;;;;;;;1.15;1.05;;;20.40;65.30;;;;;;5050984;28;20409;-79
2023/05/26 02:09:51;;;;;;;0.90;0.90;;;20.40;65.30;;;;;;5028342;28;20044;-79
2023/05/26 02:12:17;;;;;;;2.65;0.98;;;20.40;65.30;;;;;;5039605;28;20132;-79
2023/05/26 02:14:43;;;;;;;0.90;0.90;;;20.40;65.30;;;;;;5043918;28;20033;-79
2023/05/26 02:17:10;;;;;;;1.05;0.90;;;20.40;65.30;;;;;;5047029;28;20049;-79
2023/05/26 02:19:36;;;;;;;1.17;1.08;;;20.40;65.30;;;;;;5053998;28;20052;-79
2023/05/26 02:22:01;;;;;;;1.08;0.98;;;20.40;65.30;;;;;;5051178;28;20110;-79
2023/05/26 02:24:27;;;;;;;0.70;0.70;;;20.40;65.30;;;;;;5056362;28;20037;-79
2023/05/26 02:26:53;;;;;;;1.00;1.00;;;20.40;65.30;;;;;;5052020;28;20052;-79
2023/05/26 02:29:18;;;;;;;0.90;0.90;;;20.40;65.30;;;;;;5052077;28;20064;-79
2023/05/26 02:31:44;;;;;;;0.80;0.80;;;20.30;65.30;;;;;;5055066;28;20099;-79
2023/05/26 02:34:10;;;;;;;1.02;1.02;;;20.40;65.30;;;;;;5049650;28;20455;-79
2023/05/26 02:36:36;;;;;;;0.90;0.90;;;20.30;65.20;;;;;;5046972;28;20076;-79
2023/05/26 02:39:02;;;;;;;1.15;1.13;;;20.30;65.20;;;;;;5053900;28;20127;-79
2023/05/26 02:41:27;;;;;;;1.20;1.20;;;20.40;65.30;;;;;;5055051;28;20065;-79
2023/05/26 02:43:53;;;;;;;1.20;1.20;;;20.30;65.30;;;;;;5050333;28;20503;-79
2023/05/26 02:46:18;;;;;;;1.10;1.10;;;20.30;65.30;;;;;;5055091;28;20041;-79
2023/05/26 02:48:44;;;;;;;1.40;1.30;;;20.30;65.30;;;;;;5045692;28;20045;-79
2023/05/26 02:51:10;;;;;;;1.23;1.13;;;20.30;65.20;;;;;;5054746;28;20041;-79
2023/05/26 02:53:37;;;;;;;1.13;1.13;;;20.30;65.20;;;;;;5050175;28;20321;-79
2023/05/26 02:56:03;;;;;;;0.95;0.95;;;20.30;65.20;;;;;;5049677;28;20052;-79
2023/05/26 02:58:28;;;;;;;0.80;0.80;;;20.30;65.20;;;;;;5054861;28;20055;-79
2023/05/26 03:00:54;;;;;;;0.90;0.90;;;20.30;65.20;;;;;;5051133;28;20051;-79
2023/05/26 03:03:20;;;;;;;1.05;1.05;;;20.30;65.30;;;;;;5049930;28;20051;-79
2023/05/26 03:05:45;;;;;;;0.90;0.90;;;20.30;65.30;;;;;;5052094;28;20742;-79
2023/05/26 03:08:11;;;;;;;0.80;0.80;;;20.30;65.30;;;;;;5048928;28;20415;-79
2023/05/26 03:10:39;;;;;;;1.00;1.00;;;20.30;65.30;;;;;;5051765;28;20586;-79
2023/05/26 03:13:05;;;;;;;1.00;1.00;;;20.30;65.30;;;;;;5046707;28;20529;-79
2023/05/26 03:15:36;;;;;;;1.10;1.10;;;20.30;65.30;;;;;;5050533;28;20060;-79
2023/05/26 03:18:02;;;;;;;1.20;1.10;;;20.30;65.30;;;;;;5054753;28;20048;-79
2023/05/26 03:20:28;;;;;;;1.10;1.10;;;20.30;65.30;;;;;;5045612;28;20029;-79
2023/05/26 03:22:54;;;;;;;1.25;1.15;;;20.30;65.30;;;;;;5053672;28;20040;-79
2023/05/26 03:25:20;;;;;;;1.15;1.08;;;20.30;65.40;;;;;;5034411;28;20036;-79
2023/05/26 03:27:46;;;;;;;1.05;1.05;;;20.30;65.40;;;;;;5051845;28;20033;-79
2023/05/26 03:30:11;;;;;;;1.15;1.05;;;20.30;65.40;;;;;;5049140;28;20388;-79
2023/05/26 03:32:37;;;;;;;0.82;0.82;;;20.30;65.40;;;;;;5046761;28;20087;-79
2023/05/26 03:35:03;;;;;;;0.93;0.93;;;20.30;65.40;;;;;;5048728;28;20092;-79
2023/05/26 03:37:29;;;;;;;1.20;1.10;;;20.30;65.40;;;;;;5053095;28;20118;-79
2023/05/26 03:39:54;;;;;;;1.17;1.17;;;20.20;65.30;;;;;;5049442;28;20495;-79
2023/05/26 03:42:20;;;;;;;0.90;0.90;;;20.30;65.40;;;;;;5053197;28;20059;-79
2023/05/26 03:44:45;;;;;;;1.10;1.10;;;20.20;65.30;;;;;;5053004;28;20029;-79
2023/05/26 03:47:11;;;;;;;1.00;1.00;;;20.20;66.10;;;;;;5050060;28;20033;-79
2023/05/26 03:49:36;;;;;;;1.38;1.27;;;20.20;65.40;;;;;;5053660;28;20036;-79
2023/05/26 03:52:02;;;;;;;1.35;1.25;;;20.20;65.40;;;;;;5050887;28;20044;-79
2023/05/26 03:54:27;;;;;;;0.90;0.90;;;20.20;65.40;;;;;;5053699;28;20063;-79
2023/05/26 03:56:54;;;;;;;1.52;1.45;;;20.20;65.30;;;;;;5046953;28;20036;-79
2023/05/26 03:59:20;;;;;;;0.93;0.93;;;20.20;65.40;;;;;;5049292;28;20040;-79
2023/05/26 04:01:46;;;;;;;1.10;1.10;;;20.20;65.40;;;;;;5049112;28;20041;-79
2023/05/26 04:04:11;;;;;;;0.80;0.80;;;20.20;65.40;;;;;;5044424;28;20044;-79
2023/05/26 04:06:37;;;;;;;1.40;1.30;;;20.20;65.40;;;;;;5047855;28;20045;-79
2023/05/26 04:09:04;;;;;;;1.40;1.30;;;20.20;65.40;;;;;;5047595;28;20047;-79
2023/05/26 04:11:29;;;;;;;1.77;1.40;;;20.20;65.40;;;;;;5048841;28;20113;-79
2023/05/26 04:13:55;;;;;;;1.10;1.10;;;20.20;65.40;;;;;;5060233;28;20131;-79
2023/05/26 04:16:20;;;;;;;1.50;1.40;;;20.20;65.40;;;;;;5047565;28;20389;-79
2023/05/26 04:18:46;;;;;;;1.50;1.40;;;20.20;65.40;;;;;;5047943;28;20136;-79
2023/05/26 04:21:12;;;;;;;1.35;1.30;;;20.20;65.40;;;;;;5035429;28;20083;-79
2023/05/26 04:23:38;;;;;;;1.13;1.13;;;20.20;65.40;;;;;;5051422;28;20033;-79
2023/05/26 04:26:04;;;;;;;1.15;1.15;;;20.20;65.40;;;;;;5040076;28;20485;-79
2023/05/26 04:28:29;;;;;;;1.20;1.20;;;20.20;65.40;;;;;;5053625;28;20494;-79
2023/05/26 04:30:55;;;;;;;1.10;1.10;;;20.20;65.40;;;;;;5049441;28;20044;-79
2023/05/26 04:33:22;;;;;;;1.20;1.20;;;20.20;66.20;;;;;;5056218;28;20025;-79
2023/05/26 04:35:47;;;;;;;1.05;1.05;;;20.20;65.40;;;;;;5041102;28;20040;-78
2023/05/26 04:38:15;;;;;;;1.20;1.10;;;20.20;65.40;;;;;;5050413;28;20068;-79
2023/05/26 04:40:41;;;;;;;2.13;1.20;;;20.20;65.40;;;;;;5072396;28;20132;-79
2023/05/26 04:43:06;;;;;;;1.10;1.10;;;20.20;65.40;;;;;;5038587;28;20043;-79
2023/05/26 04:45:37;;;;;;;1.10;1.10;;;20.20;65.40;;;;;;5054770;28;20087;-78
2023/05/26 04:48:05;;;;;;;1.05;1.05;;;20.20;65.40;;;;;;5050260;28;20037;-79
2023/05/26 04:50:32;;;;;;;0.93;0.93;;;20.20;65.40;;;;;;5055659;28;20040;-78
2023/05/26 04:52:58;;;;;;;1.40;1.40;;;20.20;65.40;;;;;;5053942;28;20045;-79
2023/05/26 04:55:25;;;;;;;1.33;1.33;;;20.20;65.40;;;;;;5063345;28;21884;-79
2023/05/26 04:57:50;;;;;;;1.20;1.20;;;20.10;65.30;;;;;;5050657;28;20171;-79
2023/05/26 05:00:16;;;;;;;1.25;1.25;;;20.20;65.40;;;;;;5047608;28;20156;-79
2023/05/26 05:02:42;;;;;;;1.23;1.23;;;20.10;65.30;;;;;;5054161;28;20052;-79
2023/05/26 05:05:08;;;;;;;1.25;1.10;;;20.20;65.30;;;;;;4699774;28;9999746;-79
2023/05/26 05:07:34;;;;;;;1.10;1.10;;;20.20;65.40;;;;;;5042069;28;20403;-79
2023/05/26 05:09:59;;;;;;;1.38;1.38;;;20.20;65.00;;;;;;5046135;28;20136;-80
2023/05/26 05:12:25;;;;;;;1.40;1.40;;;20.20;65.30;;;;;;4694955;28;10000193;-79
2023/05/26 05:14:51;;;;;;;0.95;0.95;;;20.20;65.20;;;;;;5050383;28;20502;-79
2023/05/26 05:17:17;;;;;;;1.05;1.05;;;20.20;65.50;;;;;;5050767;28;20036;-79
2023/05/26 05:19:43;;;;;;;1.10;1.10;;;20.20;65.00;;;;;;5057017;28;20424;-79
2023/05/26 05:22:08;;;;;;;1.42;0.98;;;20.20;64.90;;;;;;5049133;28;20041;-80
2023/05/26 05:24:34;;;;;;;1.40;1.30;;;20.20;64.70;;;;;;5041135;28;20056;-80
2023/05/26 05:27:00;;;;;;;1.40;1.30;;;20.30;64.80;;;;;;5032456;28;20470;-80
2023/05/26 05:29:25;;;;;;;1.30;1.30;;;20.20;64.70;;;;;;5049292;28;20037;-79
2023/05/26 05:31:51;;;;;;;1.10;1.10;;;20.20;64.70;;;;;;5052440;28;20530;-79
2023/05/26 05:34:17;;;;;;;1.60;1.50;;;20.20;64.60;;;;;;5051986;28;20076;-80
2023/05/26 05:36:42;;;;;;;1.10;1.10;;;20.20;64.60;;;;;;5047348;28;20430;-80
2023/05/26 05:39:08;;;;;;;1.40;1.30;;;20.20;64.70;;;;;;5043281;28;20537;-84
2023/05/26 05:41:34;;;;;;;0.80;0.80;;;20.20;65.10;;;;;;5049287;28;20098;-84
2023/05/26 05:43:59;;;;;;;1.00;1.00;;;20.20;65.20;;;;;;5051356;28;20044;-83
2023/05/26 05:46:25;;;;;;;1.20;1.20;;;20.20;65.20;;;;;;5052382;28;20288;-83
2023/05/26 05:48:51;;;;;;;1.73;1.63;;;20.20;65.30;;;;;;5048237;28;20050;-82
2023/05/26 05:51:17;;;;;;;1.20;1.20;;;20.20;65.00;;;;;;5037909;28;20121;-83
2023/05/26 05:53:43;;;;;;;1.45;1.13;;;20.20;64.60;;;;;;5050589;28;20049;-83
2023/05/26 05:56:09;;;;;;;1.02;1.02;;;20.20;64.60;;;;;;5048287;28;20049;-83
2023/05/26 05:58:35;;;;;;;1.50;1.40;;;20.20;64.50;;;;;;5053977;28;20036;-84
2023/05/26 06:01:00;;;;;;;1.45;1.35;;;20.20;64.40;;;;;;5046138;28;20929;-82
2023/05/26 06:03:26;;;;;;;1.30;1.20;;;20.20;64.30;;;;;;5043799;28;20052;-82
2023/05/26 06:05:51;;;;;;;1.35;1.25;;;20.20;64.30;;;;;;5046849;28;20048;-82
2023/05/26 06:08:17;;;;;;;1.00;1.00;;;20.20;64.30;;;;;;5047055;28;20071;-82
2023/05/26 06:10:43;;;;;;;1.48;1.48;;;20.20;64.20;;;;;;5032393;28;20166;-83
2023/05/26 06:13:09;;;;;;;1.20;1.20;;;20.20;64.00;;;;;;5025296;28;20044;-84
2023/05/26 06:15:34;;;;;;;1.20;1.10;;;20.20;64.20;;;;;;5049858;28;20060;-83
2023/05/26 06:18:00;;;;;;;1.35;1.35;;;20.20;64.20;;;;;;5050232;28;20053;-81
2023/05/26 06:20:25;;;;;;;2.97;1.20;;;20.30;64.10;;;;;;5052049;28;20179;-83
2023/05/26 06:22:51;;;;;;;1.48;1.38;;;20.20;63.90;;;;;;5039271;28;20052;-83
2023/05/26 06:25:16;;;;;;;0.88;0.88;;;20.20;63.90;;;;;;5052941;28;20140;-83
2023/05/26 06:27:42;;;;;;;1.02;1.02;;;20.20;63.80;;;;;;5043915;28;20055;-82
2023/05/26 06:30:08;;;;;;;1.50;1.40;;;20.20;63.80;;;;;;5048523;28;20044;-81
2023/05/26 06:32:33;;;;;;;1.23;1.23;;;20.30;63.70;;;;;;5042503;28;20052;-84
2023/05/26 06:34:59;;;;;;;1.00;1.00;;;20.30;63.80;;;;;;5036860;28;20060;-83
2023/05/26 06:37:25;;;;;;;1.45;1.38;;;20.30;63.80;;;;;;5034088;28;20052;-84
2023/05/26 06:39:50;;;;;;;1.48;1.40;;;20.20;63.80;;;;;;5045133;28;20033;-85
2023/05/26 06:42:16;;;;;;;1.38;1.30;;;20.20;64.60;;;;;;5045152;28;20052;-83
2023/05/26 06:44:41;;;;;;;1.50;1.40;;;20.20;65.10;;;;;;5052920;28;20521;-82
2023/05/26 06:47:08;;;;;;;2.95;1.10;;;20.30;64.90;;;;;;5028268;28;20044;-81
2023/05/26 06:49:33;;;;;;;0.90;0.90;;;20.30;64.70;;;;;;5055295;28;20128;-82
2023/05/26 06:51:59;;;;;;;1.00;1.00;;;20.30;64.90;;;;;;5045703;28;20127;-81
2023/05/26 06:54:25;;;;;;;1.38;1.30;;;20.20;64.90;;;;;;5043525;28;20056;-83
2023/05/26 06:56:50;;;;;;;1.40;1.30;;;20.20;64.80;;;;;;5048058;28;20033;-82
2023/05/26 06:59:16;;;;;;;1.48;1.38;;;20.20;64.70;;;;;;5052417;28;20029;-81
2023/05/26 07:01:41;;;;;;;1.33;1.23;;;20.20;64.50;;;;;;5040151;28;20481;-82
2023/05/26 07:04:07;;;;;;;1.67;1.60;;;20.20;64.50;;;;;;5047333;28;20119;-83
2023/05/26 07:06:33;;;;;;;1.10;1.10;;;20.20;64.40;;;;;;5042888;28;20021;-79
2023/05/26 07:08:59;;;;;;;1.60;1.50;;;20.20;65.30;;;;;;5052215;28;20037;-79
2023/05/26 07:11:25;;;;;;;2.28;1.90;;;20.20;64.90;;;;;;5051070;28;20033;-78
2023/05/26 07:13:51;;;;;;;4.35;3.70;;;20.20;64.60;;;;;;5046951;28;20049;-79
2023/05/26 07:16:17;;;;;;;5.60;4.85;;;20.10;63.30;;;;;;5044663;28;20097;-79
2023/05/26 07:18:42;;;;;;;6.68;5.75;;;20.00;62.70;;;;;;5023174;28;20041;-80
2023/05/26 07:21:08;;;;;;;5.47;4.97;;;19.80;62.80;;;;;;5049605;28;20052;-79
2023/05/26 07:23:34;;;;;;;8.60;5.63;;;19.70;63.40;;;;;;5044202;28;20041;-78
2023/05/26 07:25:59;;;;;;;6.97;6.25;;;19.70;63.30;;;;;;5050574;28;20056;-78
2023/05/26 07:28:25;;;;;;;10.57;6.45;;;19.60;63.40;;;;;;5050334;28;20087;-78
2023/05/26 07:30:50;;;;;;;7.65;6.03;;;19.60;63.10;;;;;;5049643;28;20048;-78
2023/05/26 07:33:16;;;;;;;6.18;5.57;;;19.60;63.30;;;;;;5047329;28;20033;-79
2023/05/26 07:35:41;;;;;;;8.23;5.60;;;19.50;63.20;;;;;;5044585;28;20115;-78
2023/05/26 07:38:07;;;;;;;7.15;5.65;;;19.60;63.20;;;;;;5051208;28;20125;-78
2023/05/26 07:40:35;;;;;;;5.55;5.00;;;19.50;63.30;;;;;;5024614;28;20076;-79
2023/05/26 07:43:03;;;;;;;8.85;5.53;;;19.40;63.40;;;;;;5030024;28;20120;-79
2023/05/26 07:45:29;;;;;;;6.53;5.38;;;19.50;63.60;;;;;;5036998;28;20056;-78
2023/05/26 07:47:54;;;;;;;6.85;4.68;;;19.50;63.60;;;;;;5050981;28;20045;-78
2023/05/26 07:50:20;;;;;;;6.40;4.63;;;19.40;63.60;;;;;;5036750;28;20056;-78
2023/05/26 07:52:45;;;;;;;8.57;5.65;;;19.40;63.80;;;;;;5049457;28;20064;-78
2023/05/26 07:55:11;;;;;;;6.47;4.90;;;19.40;63.90;;;;;;5042423;28;20037;-79
2023/05/26 07:57:37;;;;;;;8.60;4.97;;;19.30;63.70;;;;;;5043624;28;20048;-78
2023/05/26 08:00:03;;;;;;;4.93;4.43;;;19.30;63.60;;;;;;5047597;28;20421;-79
2023/05/26 08:02:29;;;;;;;5.68;4.20;;;19.40;63.30;;;;;;5047710;28;20032;-78
2023/05/26 08:04:54;;;;;;;4.47;4.07;;;19.40;63.20;;;;;;5029997;28;20196;-79
2023/05/26 08:07:20;;;;;;;7.32;4.20;;;19.50;63.20;;;;;;5053753;28;20040;-78
2023/05/26 08:09:46;;;;;;;6.30;4.15;;;19.40;63.20;;;;;;5048470;28;20106;-78
2023/05/26 08:12:11;;;;;;;4.80;4.40;;;19.40;63.80;;;;;;5048096;28;20044;-78
2023/05/26 08:14:37;;;;;;;4.78;3.63;;;19.40;63.70;;;;;;5052770;28;20053;-79
2023/05/26 08:17:03;;;;;;;5.07;4.07;;;19.40;63.40;;;;;;5051148;28;20578;-78
2023/05/26 08:19:28;;;;;;;7.53;4.50;;;19.40;63.50;;;;;;5055215;28;20052;-78
2023/05/26 08:21:54;;;;;;;4.32;3.88;;;19.40;63.40;;;;;;5050396;28;20040;-78
2023/05/26 08:24:22;;;;;;;6.05;3.90;;;19.40;63.20;;;;;;5050794;28;20036;-79
2023/05/26 08:26:48;;;;;;;3.47;3.17;;;19.40;63.00;;;;;;5049333;28;20041;-79
2023/05/26 08:29:14;;;;;;;4.40;3.70;;;19.40;62.70;;;;;;5046038;28;20045;-79
2023/05/26 08:31:40;;;;;;;6.45;3.70;;;19.40;62.70;;;;;;5055506;28;20136;-79
2023/05/26 08:34:06;;;;;;;5.05;3.65;;;19.50;62.30;;;;;;5049299;28;20060;-79
2023/05/26 08:36:32;;;;;;;3.88;3.45;;;19.50;62.20;;;;;;5026522;28;20040;-79
2023/05/26 08:38:58;;;;;;;5.18;3.55;;;19.50;62.40;;;;;;5045426;28;20056;-79
2023/05/26 08:41:23;;;;;;;4.20;3.40;;;19.50;62.50;;;;;;5040893;28;20466;-75
2023/05/26 08:43:51;;;;;;;8.43;4.07;;;19.40;62.60;;;;;;5016163;28;20047;-78
2023/05/26 08:46:16;;;;;;;3.88;3.47;;;19.50;62.90;;;;;;5064870;28;20771;-80
2023/05/26 08:48:42;;;;;;;6.45;3.88;;;19.50;62.90;;;;;;5048984;28;20040;-79
2023/05/26 08:51:09;;;;;;;8.05;4.43;;;19.50;62.60;;;;;;5050025;28;20455;-79
2023/05/26 08:53:35;;;;;;;5.00;3.63;;;19.50;62.60;;;;;;5032986;28;20410;-79
2023/05/26 08:56:00;;;;;;;4.75;3.72;;;19.60;62.60;;;;;;5053115;28;20048;-78
2023/05/26 08:58:26;;;;;;;5.50;4.40;;;19.60;62.20;;;;;;5048699;28;20045;-79
2023/05/26 09:00:53;;;;;;;5.40;4.10;;;19.60;62.30;;;;;;5046169;28;20425;-78
2023/05/26 09:03:18;;;;;;;5.88;4.35;;;19.60;62.60;;;;;;5044585;28;20498;-78
2023/05/26 09:05:47;;;;;;;6.00;3.38;;;19.60;62.50;;;;;;5050286;28;20136;-77
2023/05/26 09:08:13;;;;;;;5.57;3.83;;;19.60;62.20;;;;;;5046194;28;21264;-76
2023/05/26 09:10:46;;;;;;;6.76;3.89;;;19.70;61.80;;;;;;4987010;28;10000649;-77
2023/05/26 09:13:17;;;;;;;4.55;3.45;;;19.60;61.70;;;;;;5041138;28;20471;-78
2023/05/26 09:15:43;;;;;;;5.18;3.28;;;19.70;61.90;;;;;;5045963;28;20063;-79
2023/05/26 09:18:15;;;;;;;4.32;3.40;;;19.70;61.60;;;;;;5049566;28;20125;-79
2023/05/26 09:20:42;;;;;;;5.38;4.05;;;19.70;62.00;;;;;;5049216;28;20045;-79
2023/05/26 09:23:08;;;;;;;6.38;3.53;;;19.70;62.30;;;;;;5027342;28;20054;-79
2023/05/26 09:25:37;;;;;;;6.93;3.78;;;19.70;62.30;;;;;;5019692;28;20041;-79
2023/05/26 09:28:04;;;;;;;5.80;3.03;;;19.70;62.20;;;;;;5035376;28;20422;-78
2023/05/26 09:30:46;;;;;;;3.72;3.20;;;19.70;62.40;;;;;;5042173;28;20124;-80
2023/05/26 09:33:16;;;;;;;3.97;3.47;;;19.80;62.10;;;;;;5029024;28;20043;-78
2023/05/26 09:35:43;;;;;;;3.78;3.38;;;19.80;62.10;;;;;;5041678;28;20854;-79
2023/05/26 09:38:10;;;;;;;4.90;2.92;;;19.80;61.40;;;;;;5049333;28;20132;-79
2023/05/26 09:40:42;;;;;;;3.95;3.58;;;19.80;61.70;;;;;;5051724;28;20358;-78
2023/05/26 09:43:08;;;;;;;3.72;2.85;;;19.80;61.30;;;;;;5050839;28;20098;-78
2023/05/26 09:45:37;;;;;;;4.05;2.97;;;19.80;61.50;;;;;;5046369;28;20040;-78
2023/05/26 09:48:08;;;;;;;4.40;3.35;;;19.80;61.20;;;;;;5031891;28;20056;-78
2023/05/26 09:50:35;;;;;;;3.67;3.10;;;19.90;61.30;;;;;;5051366;28;20092;-78
2023/05/26 09:53:01;;;;;;;3.38;2.70;;;19.90;61.10;;;;;;5031115;28;20121;-78
2023/05/26 09:55:27;;;;;;;3.70;2.90;;;19.90;60.90;;;;;;5031729;28;20411;-78
2023/05/26 09:57:53;;;;;;;4.50;2.70;;;19.90;61.20;;;;;;5027888;28;20535;-76
2023/05/26 10:00:19;;;;;;;3.13;2.83;;;19.90;61.80;;;;;;5017955;28;20076;-79
2023/05/26 10:02:45;;;;;;;5.57;2.47;;;20.00;61.40;;;;;;5048841;28;20052;-81
2023/05/26 10:05:11;;;;;;;2.90;2.53;;;20.10;61.60;;;;;;5054959;28;20040;-80
2023/05/26 10:07:36;;;;;;;3.15;2.63;;;20.10;61.70;;;;;;5050556;28;20106;-80
2023/05/26 10:10:02;;;;;;;2.60;2.40;;;20.10;61.90;;;;;;5034746;28;20036;-80
2023/05/26 10:12:31;;;;;;;4.10;2.60;;;20.20;61.80;;;;;;5058188;28;20069;-80
2023/05/26 10:14:57;;;;;;;2.67;2.17;;;20.20;61.90;;;;;;5051739;28;20099;-80
2023/05/26 10:17:23;;;;;;;2.33;1.95;;;20.20;61.80;;;;;;5048668;28;20041;-80
2023/05/26 10:19:49;;;;;;;2.53;2.17;;;20.20;61.80;;;;;;5053252;28;20520;-80
2023/05/26 10:22:27;;;;;;;2.53;2.30;;;20.20;61.90;;;;;;5054231;28;20032;-80
2023/05/26 10:25:07;;;;;;;2.20;2.00;;;20.20;62.00;;;;;;5036876;28;20045;-80
2023/05/26 10:28:05;;;;;;;2.88;2.08;;;20.20;62.10;;;;;;5049540;28;20045;-80
2023/05/26 10:30:30;;;;;;;2.28;2.08;;;20.20;62.20;;;;;;4973109;28;20059;-80
2023/05/26 10:32:57;;;;;;;2.53;1.75;;;20.30;62.20;;;;;;4967695;28;20078;-80
2023/05/26 10:35:30;;;;;;;3.40;2.60;;;20.30;62.20;;;;;;4972108;28;20112;-80
2023/05/26 10:38:16;;;;;;;3.08;2.00;;;20.30;62.20;;;;;;4971198;28;20042;-80
2023/05/26 10:40:43;;;;;;;2.60;2.40;;;20.30;62.30;;;;;;4943360;28;20050;-80
2023/05/26 10:43:22;;;;;;;2.28;2.10;;;20.30;62.20;;;;;;4976309;28;20452;-80
2023/05/26 10:45:55;;;;;;;2.85;1.85;;;20.30;62.20;;;;;;4971860;28;20574;-80
2023/05/26 10:48:20;;;;;;;2.10;1.90;;;20.40;62.30;;;;;;4969652;28;20031;-79
2023/05/26 10:50:55;;;;;;;3.28;2.00;;;20.40;62.40;;;;;;4974655;28;20039;-80
2023/05/26 10:53:21;;;;;;;5.38;2.20;;;20.40;62.40;;;;;;4968820;28;20034;-80
2023/05/26 10:55:55;;;;;;;2.45;2.03;;;20.40;62.40;;;;;;4973832;28;20073;-80
2023/05/26 10:58:31;;;;;;;1.90;1.80;;;20.40;62.40;;;;;;4973253;28;20042;-80
2023/05/26 11:01:08;;;;;;;3.45;1.90;;;20.40;62.40;;;;;;4970291;28;20043;-80
2023/05/26 11:03:35;;;;;;;1.80;1.70;;;20.40;62.50;;;;;;4966528;28;20042;-80
2023/05/26 11:06:02;;;;;;;1.95;1.85;;;20.40;62.40;;;;;;4974409;28;20058;-80
2023/05/26 11:08:37;;;;;;;1.95;1.83;;;20.40;62.50;;;;;;5025208;28;20051;-80
2023/05/26 11:11:07;;;;;;;1.65;1.55;;;20.40;62.50;;;;;;5054185;28;20528;-80
2023/05/26 11:13:45;;;;;;;2.00;1.90;;;20.40;62.50;;;;;;5053698;28;20068;-80
2023/05/26 11:16:14;;;;;;;2.08;1.98;;;20.40;62.50;;;;;;5056695;28;20079;-80
2023/05/26 11:18:40;;;;;;;1.65;1.55;;;20.50;62.60;;;;;;5046849;28;20131;-80
2023/05/26 11:21:06;;;;;;;1.77;1.65;;;20.40;62.60;;;;;;5052192;28;20136;-80
2023/05/26 11:23:32;;;;;;;1.90;1.75;;;20.40;62.60;;;;;;5034661;28;20053;-80
2023/05/26 11:25:57;;;;;;;1.90;1.80;;;20.50;62.70;;;;;;5049624;28;20103;-80
2023/05/26 11:28:23;;;;;;;1.52;1.42;;;20.50;62.70;;;;;;5047393;28;21041;-80
2023/05/26 11:30:48;;;;;;;1.70;1.60;;;20.50;62.60;;;;;;5048585;28;20514;-80
2023/05/26 11:33:15;;;;;;;1.65;1.55;;;20.50;63.40;;;;;;5049683;28;20108;-80
2023/05/26 11:35:40;;;;;;;2.58;1.80;;;20.50;62.60;;;;;;5050101;28;20045;-80
2023/05/26 11:38:06;;;;;;;1.73;1.63;;;20.50;62.70;;;;;;5049938;28;20371;-80
2023/05/26 11:40:32;;;;;;;1.95;1.85;;;20.50;62.70;;;;;;5052094;28;20190;-80
2023/05/26 11:42:57;;;;;;;1.80;1.70;;;20.50;62.70;;;;;;5047869;28;20112;-80
2023/05/26 11:45:25;;;;;;;1.85;1.75;;;20.50;62.70;;;;;;5026747;28;20896;-80
2023/05/26 11:47:51;;;;;;;1.63;1.52;;;20.50;62.80;;;;;;5058138;28;20045;-80
2023/05/26 11:50:17;;;;;;;1.30;1.23;;;20.50;62.80;;;;;;5035196;28;20041;-81
2023/05/26 11:52:51;;;;;;;3.15;1.52;;;20.60;62.70;;;;;;5043147;28;20076;-82
2023/05/26 11:55:20;;;;;;;1.55;1.45;;;20.60;62.60;;;;;;5051787;28;20094;-84
2023/05/26 11:57:46;;;;;;;3.85;2.55;;;20.60;62.70;;;;;;5049471;28;20055;-84
2023/05/26 12:00:14;;;;;;;3.40;1.83;;;20.70;63.50;;;;;;5049361;28;20571;-88
2023/05/26 12:02:40;;;;;;;6.05;2.05;;;20.60;64.40;;;;;;5069368;28;20056;-84
2023/05/26 12:05:28;;;;;;;2.00;1.80;;;20.70;63.40;;;;;;4952675;28;10001302;-83
2023/05/26 12:08:09;;;;;;;2.58;1.90;;;20.70;63.20;;;;;;5049631;28;20356;-81
2023/05/26 12:10:35;;;;;;;1.52;1.42;;;20.70;63.00;;;;;;5054124;28;20071;-84
2023/05/26 12:13:01;;;;;;;1.83;1.73;;;20.70;63.00;;;;;;5035177;28;20094;-84
2023/05/26 12:15:27;;;;;;;1.80;1.70;;;20.70;63.60;;;;;;5035027;28;20578;-83
2023/05/26 12:17:53;;;;;;;1.60;1.50;;;20.70;64.10;;;;;;5040704;28;20029;-79
2023/05/26 12:20:19;;;;;;;2.03;1.92;;;20.70;64.00;;;;;;5055202;28;20041;-83
2023/05/26 12:22:48;;;;;;;1.70;1.50;;;20.70;63.80;;;;;;5039928;28;20612;-81
2023/05/26 12:25:22;;;;;;;1.75;1.65;;;20.70;64.00;;;;;;5038703;28;20076;-81
2023/05/26 12:27:48;;;;;;;;;;;20.70;63.70;;;;;;5032085;28;20053;-86
2023/05/26 12:30:21;;;;;;;1.75;1.60;;;20.70;63.60;;;;;;5028154;28;19921;-85
2023/05/26 12:32:48;;;;;;;5.85;1.80;;;20.70;63.40;;;;;;5016647;28;20037;-82
2023/05/26 12:35:13;;;;;;;1.25;1.17;;;20.80;63.50;;;;;;5045318;28;20049;-81
2023/05/26 12:37:39;;;;;;;2.13;1.40;;;20.80;63.70;;;;;;5050297;28;20119;-80
2023/05/26 12:40:06;;;;;;;1.60;1.50;;;20.70;63.40;;;;;;5027015;28;20049;-81
2023/05/26 12:42:31;;;;;;;1.40;1.30;;;20.80;63.40;;;;;;5029171;28;20048;-81
2023/05/26 12:44:57;;;;;;;1.58;1.27;;;20.80;63.50;;;;;;5024877;28;20045;-81